Time;durP1;ratioP1;P1;durP2;ratioP2;P2;SDS_P1;SDS_P2;PMS_P1;PMS_P2;Temp;Humidity;BMP_temperature;BMP_pressure;BME280_temperature;BME280_humidity;BME280_pressure;Samples;Min_cycle;Max_cycle;Signal;HPM_P1;HPM_P2
2021/12/29 00:00:27;;;;;;;61.83;36.35;;;;;;;;;;6204395;28;20180;-65
2021/12/29 00:03:29;;;;;;;69.95;37.00;;;;;;;;;;6204274;28;20046;-66
2021/12/29 00:06:30;;;;;;;63.15;35.78;;;;;;;;;;6209904;28;20132;-65
2021/12/29 00:09:36;;;;;;;63.15;36.08;;;;;;;;;;6216958;28;20501;-65
2021/12/29 00:12:41;;;;;;;159.50;80.43;;;;;;;;;;6193521;28;20042;-64
2021/12/29 00:15:44;;;;;;;162.38;79.35;;;;;;;;;;6171427;28;20089;-64
2021/12/29 00:18:46;;;;;;;102.70;54.08;;;;;;;;;;6182561;28;20188;-65
2021/12/29 00:21:47;;;;;;;187.82;90.10;;;;;;;;;;6178394;28;20575;-65
2021/12/29 00:24:49;;;;;;;135.02;67.10;;;;;;;;;;6187235;28;20129;-65
2021/12/29 00:27:52;;;;;;;165.80;81.32;;;;;;;;;;6181205;28;20046;-65
2021/12/29 00:30:56;;;;;;;104.18;53.05;;;;;;;;;;6174245;28;20054;-65
2021/12/29 00:33:57;;;;;;;72.75;39.22;;;;;;;;;;6187822;28;20109;-65
2021/12/29 00:36:59;;;;;;;65.00;36.20;;;;;;;;;;6175068;28;20096;-65
2021/12/29 00:40:01;;;;;;;67.28;36.30;;;;;;;;;;6214486;28;20084;-66
2021/12/29 00:43:02;;;;;;;61.13;34.80;;;;;;;;;;6207191;28;20151;-65
2021/12/29 00:46:07;;;;;;;65.97;35.53;;;;;;;;;;6179398;28;20133;-65
2021/12/29 00:49:09;;;;;;;66.97;35.88;;;;;;;;;;6191640;28;20414;-65
2021/12/29 00:52:12;;;;;;;64.78;36.30;;;;;;;;;;6182804;28;20509;-65
2021/12/29 00:55:14;;;;;;;67.82;37.05;;;;;;;;;;6183538;28;20372;-65
2021/12/29 00:58:16;;;;;;;67.60;38.00;;;;;;;;;;6191057;28;20208;-65
2021/12/29 01:01:19;;;;;;;72.45;38.22;;;;;;;;;;6182879;28;20475;-65
2021/12/29 01:04:21;;;;;;;70.03;38.53;;;;;;;;;;6183277;28;22094;-65
2021/12/29 01:07:23;;;;;;;64.55;35.67;;;;;;;;;;6178846;28;20594;-66
2021/12/29 01:10:24;;;;;;;65.20;35.22;;;;;;;;;;6206065;28;20238;-66
2021/12/29 01:13:30;;;;;;;63.47;36.22;;;;;;;;;;6208189;28;20137;-66
2021/12/29 01:16:39;;;;;;;60.13;35.72;;;;;;;;;;6197973;28;20053;-65
2021/12/29 01:19:41;;;;;;;61.08;35.25;;;;;;;;;;6218344;28;20061;-65
2021/12/29 01:22:43;;;;;;;66.15;37.15;;;;;;;;;;6197553;28;20089;-65
2021/12/29 01:25:44;;;;;;;65.25;35.45;;;;;;;;;;6205967;28;20077;-65
2021/12/29 01:28:46;;;;;;;62.08;34.03;;;;;;;;;;6220326;28;20161;-65
2021/12/29 01:31:49;;;;;;;67.05;36.83;;;;;;;;;;6201848;28;20498;-65
2021/12/29 01:34:50;;;;;;;56.45;34.58;;;;;;;;;;6188286;28;20194;-65
2021/12/29 01:37:52;;;;;;;63.28;35.60;;;;;;;;;;6176877;28;20182;-66
2021/12/29 01:40:54;;;;;;;59.00;35.30;;;;;;;;;;6185300;28;20117;-65
2021/12/29 01:43:56;;;;;;;60.40;34.70;;;;;;;;;;6205184;28;20062;-66
2021/12/29 01:46:59;;;;;;;57.47;31.80;;;;;;;;;;6181491;28;20138;-66
2021/12/29 01:50:01;;;;;;;58.72;33.45;;;;;;;;;;6194218;28;20049;-66
2021/12/29 01:53:08;;;;;;;55.70;31.77;;;;;;;;;;6198396;28;20054;-66
2021/12/29 01:56:11;;;;;;;55.13;31.77;;;;;;;;;;6179671;28;20046;-65
2021/12/29 01:59:14;;;;;;;56.85;32.17;;;;;;;;;;6184041;28;20081;-66
2021/12/29 02:02:17;;;;;;;59.45;32.17;;;;;;;;;;6176193;28;20070;-65
2021/12/29 02:05:19;;;;;;;57.28;32.00;;;;;;;;;;6182990;28;20505;-65
2021/12/29 02:08:23;;;;;;;55.13;31.80;;;;;;;;;;6184688;28;20133;-65
2021/12/29 02:11:29;;;;;;;60.35;32.70;;;;;;;;;;6178461;28;20410;-66
2021/12/29 02:14:31;;;;;;;54.58;31.10;;;;;;;;;;6203217;28;20049;-65
2021/12/29 02:17:35;;;;;;;55.15;32.22;;;;;;;;;;6199494;28;20187;-65
2021/12/29 02:20:38;;;;;;;52.53;31.00;;;;;;;;;;6212097;28;20485;-65
2021/12/29 02:23:55;;;;;;;57.25;31.92;;;;;;;;;;6202744;28;20139;-66
2021/12/29 02:26:59;;;;;;;55.95;30.98;;;;;;;;;;6181104;28;20049;-65
2021/12/29 02:30:01;;;;;;;57.92;30.67;;;;;;;;;;6197671;28;20129;-65
2021/12/29 02:33:05;;;;;;;49.50;28.25;;;;;;;;;;6180545;28;20066;-65
2021/12/29 02:36:08;;;;;;;;;;;;;;;;;;6196733;28;20058;-65
2021/12/29 02:39:10;;;;;;;51.50;27.85;;;;;;;;;;6206408;28;20012;-65
2021/12/29 02:42:11;;;;;;;50.45;29.67;;;;;;;;;;6187063;28;20145;-65
2021/12/29 02:45:15;;;;;;;55.35;31.10;;;;;;;;;;6207321;28;20053;-65
2021/12/29 02:48:17;;;;;;;52.03;29.52;;;;;;;;;;6213781;28;20046;-65
2021/12/29 02:51:20;;;;;;;50.47;28.98;;;;;;;;;;6185508;28;20054;-65
2021/12/29 02:54:22;;;;;;;52.05;30.17;;;;;;;;;;6197474;28;20168;-65
2021/12/29 02:57:23;;;;;;;54.75;29.38;;;;;;;;;;6203091;28;20137;-65
2021/12/29 03:00:25;;;;;;;51.38;29.25;;;;;;;;;;6187937;28;20125;-65
2021/12/29 03:03:30;;;;;;;50.30;27.55;;;;;;;;;;6184432;28;20137;-65
2021/12/29 03:06:33;;;;;;;50.15;29.90;;;;;;;;;;6190982;28;20381;-65
2021/12/29 03:09:35;;;;;;;52.40;29.85;;;;;;;;;;6217802;28;20141;-65
2021/12/29 03:12:37;;;;;;;54.63;29.65;;;;;;;;;;6206817;28;20049;-65
2021/12/29 03:15:39;;;;;;;51.88;28.33;;;;;;;;;;6208508;28;20193;-65
2021/12/29 03:18:41;;;;;;;53.90;29.48;;;;;;;;;;6218953;28;20045;-65
2021/12/29 03:21:45;;;;;;;48.20;26.63;;;;;;;;;;6212652;28;20656;-65
2021/12/29 03:24:47;;;;;;;51.75;30.02;;;;;;;;;;6220670;28;20052;-65
2021/12/29 03:27:49;;;;;;;48.92;27.38;;;;;;;;;;6208554;28;20140;-65
2021/12/29 03:30:53;;;;;;;47.22;28.00;;;;;;;;;;6208407;28;20116;-65
2021/12/29 03:33:55;;;;;;;49.63;28.40;;;;;;;;;;6218034;28;20054;-65
2021/12/29 03:36:58;;;;;;;49.97;29.23;;;;;;;;;;6196162;28;20948;-65
2021/12/29 03:39:59;;;;;;;54.75;30.17;;;;;;;;;;6194832;28;20128;-65
2021/12/29 03:43:01;;;;;;;54.28;29.80;;;;;;;;;;6208390;28;20056;-65
2021/12/29 03:46:05;;;;;;;53.17;30.70;;;;;;;;;;6200406;28;20073;-65
2021/12/29 03:49:06;;;;;;;51.70;29.50;;;;;;;;;;6208015;28;20135;-65
2021/12/29 03:52:09;;;;;;;62.35;31.55;;;;;;;;;;6203679;28;20497;-65
2021/12/29 03:55:11;;;;;;;50.28;29.30;;;;;;;;;;6211125;28;20963;-65
2021/12/29 03:58:13;;;;;;;56.47;30.42;;;;;;;;;;6212097;28;20123;-65
2021/12/29 04:01:18;;;;;;;56.15;30.50;;;;;;;;;;6202372;28;20136;-65
2021/12/29 04:04:20;;;;;;;56.28;30.92;;;;;;;;;;6223434;28;20563;-65
2021/12/29 04:07:23;;;;;;;50.83;30.10;;;;;;;;;;6207966;28;20122;-65
2021/12/29 04:10:25;;;;;;;53.13;29.48;;;;;;;;;;6200790;28;20035;-65
2021/12/29 04:13:26;;;;;;;50.38;28.67;;;;;;;;;;6188878;28;20196;-65
2021/12/29 04:16:28;;;;;;;51.05;28.73;;;;;;;;;;6202842;28;20173;-65
2021/12/29 04:19:40;;;;;;;54.03;28.88;;;;;;;;;;6180306;28;20054;-65
2021/12/29 04:22:43;;;;;;;51.50;30.50;;;;;;;;;;6210101;28;20038;-65
2021/12/29 04:25:48;;;;;;;54.13;30.45;;;;;;;;;;6216972;28;20093;-65
2021/12/29 04:28:50;;;;;;;51.83;28.95;;;;;;;;;;6208532;28;20052;-65
2021/12/29 04:31:51;;;;;;;51.35;28.95;;;;;;;;;;6182128;28;20101;-65
2021/12/29 04:34:53;;;;;;;48.28;26.77;;;;;;;;;;6190372;28;20074;-65
2021/12/29 04:37:56;;;;;;;45.03;27.25;;;;;;;;;;6179362;28;20110;-65
2021/12/29 04:40:58;;;;;;;48.97;28.17;;;;;;;;;;6183928;28;20058;-65
2021/12/29 04:44:00;;;;;;;43.22;25.27;;;;;;;;;;6195085;28;20455;-66
2021/12/29 04:47:01;;;;;;;46.20;28.75;;;;;;;;;;6163568;28;20522;-65
2021/12/29 04:50:04;;;;;;;41.25;25.75;;;;;;;;;;6190343;28;20050;-65
2021/12/29 04:53:09;;;;;;;42.40;26.17;;;;;;;;;;6182018;28;20042;-65
2021/12/29 04:56:11;;;;;;;38.58;24.58;;;;;;;;;;6181612;28;20553;-65
2021/12/29 04:59:14;;;;;;;41.25;25.13;;;;;;;;;;6194478;28;20077;-65
2021/12/29 05:02:16;;;;;;;38.70;23.77;;;;;;;;;;6185535;28;20060;-65
2021/12/29 05:05:27;;;;;;;43.80;26.65;;;;;;;;;;6203278;28;20193;-65
2021/12/29 05:08:29;;;;;;;38.45;23.52;;;;;;;;;;6214802;28;20053;-65
2021/12/29 05:11:31;;;;;;;37.90;23.05;;;;;;;;;;6211990;28;20196;-65
2021/12/29 05:14:32;;;;;;;39.08;24.63;;;;;;;;;;6202858;28;20050;-65
2021/12/29 05:17:34;;;;;;;35.30;22.55;;;;;;;;;;6183195;28;20092;-65
2021/12/29 05:20:36;;;;;;;39.03;24.05;;;;;;;;;;6188764;28;20121;-65
2021/12/29 05:23:38;;;;;;;37.47;22.85;;;;;;;;;;6196829;28;20058;-65
2021/12/29 05:26:40;;;;;;;34.13;22.73;;;;;;;;;;6186566;28;20394;-65
2021/12/29 05:29:42;;;;;;;35.25;23.42;;;;;;;;;;6195639;28;20073;-66
2021/12/29 05:32:44;;;;;;;40.33;23.92;;;;;;;;;;6207689;28;20046;-65
2021/12/29 05:35:45;;;;;;;38.85;24.42;;;;;;;;;;6187715;28;20146;-66
2021/12/29 05:38:48;;;;;;;35.92;23.48;;;;;;;;;;6185140;28;20082;-65
2021/12/29 05:41:51;;;;;;;34.67;23.05;;;;;;;;;;6175107;28;20182;-66
2021/12/29 05:44:52;;;;;;;34.50;22.55;;;;;;;;;;6218740;28;20077;-65
2021/12/29 05:47:56;;;;;;;34.38;23.17;;;;;;;;;;6201546;28;20125;-65
2021/12/29 05:51:01;;;;;;;36.90;23.30;;;;;;;;;;6204390;28;20050;-65
2021/12/29 05:54:04;;;;;;;37.40;23.42;;;;;;;;;;6216154;28;20382;-65
2021/12/29 05:57:05;;;;;;;37.72;23.23;;;;;;;;;;6206823;28;20091;-66
2021/12/29 06:00:09;;;;;;;37.60;22.55;;;;;;;;;;6207039;28;20144;-65
2021/12/29 06:03:11;;;;;;;35.50;22.35;;;;;;;;;;6177017;28;20176;-65
2021/12/29 06:06:13;;;;;;;36.30;22.70;;;;;;;;;;6177463;28;20066;-65
2021/12/29 06:09:15;;;;;;;32.72;21.40;;;;;;;;;;6190254;28;20141;-65
2021/12/29 06:12:17;;;;;;;32.97;21.40;;;;;;;;;;6180924;28;21108;-65
2021/12/29 06:15:19;;;;;;;34.08;21.55;;;;;;;;;;6180207;28;20614;-65
2021/12/29 06:18:20;;;;;;;31.05;20.20;;;;;;;;;;6188372;28;20082;-66
2021/12/29 06:21:22;;;;;;;30.58;20.17;;;;;;;;;;6184266;28;20138;-66
2021/12/29 06:24:25;;;;;;;32.88;20.73;;;;;;;;;;6193929;28;20081;-65
2021/12/29 06:27:26;;;;;;;29.77;20.70;;;;;;;;;;6201688;28;20053;-66
2021/12/29 06:30:28;;;;;;;31.13;20.95;;;;;;;;;;6215095;28;20961;-66
2021/12/29 06:33:30;;;;;;;33.28;20.55;;;;;;;;;;6212095;28;20133;-65
2021/12/29 06:36:31;;;;;;;30.38;20.67;;;;;;;;;;6205792;28;20049;-65
2021/12/29 06:39:34;;;;;;;31.90;20.08;;;;;;;;;;6213703;28;20123;-66
2021/12/29 06:42:37;;;;;;;31.48;20.45;;;;;;;;;;6208158;28;20133;-65
2021/12/29 06:45:38;;;;;;;30.90;19.38;;;;;;;;;;6206843;28;20140;-65
2021/12/29 06:48:40;;;;;;;30.05;19.63;;;;;;;;;;6217383;28;20359;-65
2021/12/29 06:51:42;;;;;;;29.20;19.48;;;;;;;;;;6205795;28;20136;-65
2021/12/29 06:54:46;;;;;;;31.00;18.77;;;;;;;;;;6220842;28;20139;-65
2021/12/29 06:57:47;;;;;;;;;;;;;;;;;;6205189;28;20061;-65
2021/12/29 07:00:49;;;;;;;33.05;19.40;;;;;;;;;;6199295;28;20000;-65
2021/12/29 07:03:51;;;;;;;33.00;19.40;;;;;;;;;;6185548;28;20101;-65
2021/12/29 07:06:53;;;;;;;36.78;20.40;;;;;;;;;;6205767;28;20130;-65
2021/12/29 07:09:56;;;;;;;31.42;19.63;;;;;;;;;;6218268;28;20128;-65
2021/12/29 07:12:58;;;;;;;30.15;19.08;;;;;;;;;;6208374;28;20123;-64
2021/12/29 07:16:00;;;;;;;30.38;18.65;;;;;;;;;;6186793;28;20121;-64
2021/12/29 07:19:02;;;;;;;29.73;18.80;;;;;;;;;;6214212;28;20121;-64
2021/12/29 07:22:05;;;;;;;29.73;19.13;;;;;;;;;;6201621;28;20053;-64
2021/12/29 07:25:09;;;;;;;32.37;19.70;;;;;;;;;;6209244;28;20128;-65
2021/12/29 07:28:10;;;;;;;31.98;19.20;;;;;;;;;;6210720;28;20196;-64
2021/12/29 07:31:12;;;;;;;31.42;19.80;;;;;;;;;;6209974;28;20045;-64
2021/12/29 07:34:14;;;;;;;33.30;20.27;;;;;;;;;;6211501;28;20172;-64
2021/12/29 07:37:15;;;;;;;28.45;18.25;;;;;;;;;;6206856;28;20087;-64
2021/12/29 07:40:18;;;;;;;37.80;18.85;;;;;;;;;;6208695;28;20050;-64
2021/12/29 07:43:20;;;;;;;33.08;18.75;;;;;;;;;;6209468;28;20050;-65
2021/12/29 07:46:22;;;;;;;33.08;19.17;;;;;;;;;;6169210;28;20973;-64
2021/12/29 07:49:24;;;;;;;30.65;18.77;;;;;;;;;;6190512;28;20069;-64
2021/12/29 07:52:25;;;;;;;29.27;18.90;;;;;;;;;;6173761;28;20188;-64
2021/12/29 07:55:28;;;;;;;32.67;18.60;;;;;;;;;;6177563;28;20888;-65
2021/12/29 07:58:30;;;;;;;25.85;17.67;;;;;;;;;;6191721;28;20078;-64
2021/12/29 08:01:32;;;;;;;24.50;15.90;;;;;;;;;;6197653;28;20259;-65
2021/12/29 08:04:33;;;;;;;24.75;16.55;;;;;;;;;;6210310;28;20095;-65
2021/12/29 08:07:35;;;;;;;23.88;15.77;;;;;;;;;;6207250;28;20076;-65
2021/12/29 08:10:39;;;;;;;23.05;15.63;;;;;;;;;;6195836;28;20121;-65
2021/12/29 08:13:40;;;;;;;24.38;14.07;;;;;;;;;;6217645;28;20148;-65
2021/12/29 08:16:42;;;;;;;23.98;14.65;;;;;;;;;;6191243;28;20125;-65
2021/12/29 08:19:45;;;;;;;21.30;13.98;;;;;;;;;;6207550;28;20050;-65
2021/12/29 08:22:47;;;;;;;21.48;14.90;;;;;;;;;;6199996;28;20499;-65
2021/12/29 08:25:50;;;;;;;24.23;15.02;;;;;;;;;;6203740;28;20148;-64
2021/12/29 08:28:52;;;;;;;21.00;13.27;;;;;;;;;;6216735;28;20125;-65
2021/12/29 08:31:55;;;;;;;22.60;14.20;;;;;;;;;;6199448;28;20054;-65
2021/12/29 08:34:57;;;;;;;22.95;14.68;;;;;;;;;;6212652;28;20057;-65
2021/12/29 08:37:58;;;;;;;20.15;14.18;;;;;;;;;;6205202;28;20116;-65
2021/12/29 08:41:01;;;;;;;20.75;13.80;;;;;;;;;;6209584;28;20132;-65
2021/12/29 08:44:03;;;;;;;20.88;13.65;;;;;;;;;;6212873;28;20124;-65
2021/12/29 08:47:05;;;;;;;18.80;13.00;;;;;;;;;;6209441;28;20524;-65
2021/12/29 08:50:10;;;;;;;17.55;12.85;;;;;;;;;;6222205;28;20069;-66
2021/12/29 08:53:13;;;;;;;19.33;13.13;;;;;;;;;;6218845;28;20053;-65
2021/12/29 08:56:17;;;;;;;19.17;13.02;;;;;;;;;;6213628;28;20379;-65
2021/12/29 08:59:18;;;;;;;20.13;13.63;;;;;;;;;;6223544;28;20061;-65
2021/12/29 09:02:20;;;;;;;17.40;14.00;;;;;;;;;;6196594;28;20099;-65
2021/12/29 09:05:21;;;;;;;18.80;14.20;;;;;;;;;;6177930;28;20145;-65
2021/12/29 09:08:23;;;;;;;21.55;14.40;;;;;;;;;;6191310;28;20172;-65
2021/12/29 09:11:29;;;;;;;19.58;13.85;;;;;;;;;;6182211;28;20105;-65
2021/12/29 09:14:31;;;;;;;22.02;14.20;;;;;;;;;;6202955;28;20037;-66
2021/12/29 09:17:32;;;;;;;20.20;14.85;;;;;;;;;;6199213;28;20141;-65
2021/12/29 09:20:37;;;;;;;17.92;13.95;;;;;;;;;;6183364;28;20678;-65
2021/12/29 09:23:38;;;;;;;;;;;;;;;;;;6188288;28;20066;-66
2021/12/29 09:26:41;;;;;;;21.48;13.90;;;;;;;;;;6183060;28;19975;-65
2021/12/29 09:29:43;;;;;;;19.30;14.43;;;;;;;;;;6195954;28;20152;-65
2021/12/29 09:32:45;;;;;;;17.88;13.77;;;;;;;;;;6187601;28;20494;-66
2021/12/29 09:35:47;;;;;;;18.50;14.15;;;;;;;;;;6221818;28;20126;-65
2021/12/29 09:38:49;;;;;;;18.30;14.75;;;;;;;;;;6210475;28;20053;-65
2021/12/29 09:41:52;;;;;;;19.70;14.57;;;;;;;;;;6200422;28;20129;-65
2021/12/29 09:44:54;;;;;;;21.25;15.68;;;;;;;;;;6206347;28;20125;-65
2021/12/29 09:47:57;;;;;;;18.65;14.23;;;;;;;;;;6174083;28;20050;-65
2021/12/29 09:50:58;;;;;;;20.23;14.70;;;;;;;;;;6187556;28;20053;-66
2021/12/29 09:54:00;;;;;;;17.40;13.68;;;;;;;;;;6210384;28;20099;-66
2021/12/29 09:57:04;;;;;;;18.05;13.98;;;;;;;;;;6210948;28;20136;-65
2021/12/29 10:00:07;;;;;;;18.90;14.35;;;;;;;;;;6216076;28;20042;-65
2021/12/29 10:03:12;;;;;;;21.97;16.13;;;;;;;;;;6184823;28;20120;-65
2021/12/29 10:06:14;;;;;;;24.83;17.20;;;;;;;;;;6174323;28;20046;-65
2021/12/29 10:09:18;;;;;;;25.52;18.13;;;;;;;;;;6190707;28;20546;-65
2021/12/29 10:12:22;;;;;;;23.63;17.40;;;;;;;;;;6201461;28;20196;-65
2021/12/29 10:15:28;;;;;;;22.33;16.77;;;;;;;;;;6190667;28;20050;-65
2021/12/29 10:18:31;;;;;;;24.88;18.10;;;;;;;;;;6184567;28;20061;-65
2021/12/29 10:21:35;;;;;;;26.20;18.08;;;;;;;;;;6184606;28;20127;-65
2021/12/29 10:24:37;;;;;;;26.65;18.83;;;;;;;;;;6203270;28;20046;-65
2021/12/29 10:27:40;;;;;;;25.77;17.80;;;;;;;;;;6187144;28;20164;-65
2021/12/29 10:31:27;;;;;;;21.55;17.17;;;;;;;;;;6319491;27;20733;-64
2021/12/29 10:34:30;;;;;;;24.35;17.33;;;;;;;;;;6324851;28;20043;-64
2021/12/29 10:37:31;;;;;;;23.33;17.00;;;;;;;;;;6327193;28;20044;-64
2021/12/29 10:40:34;;;;;;;26.10;18.20;;;;;;;;;;6326701;28;20079;-65
2021/12/29 10:43:36;;;;;;;23.77;18.40;;;;;;;;;;6323981;28;20412;-64
2021/12/29 10:46:38;;;;;;;26.33;17.60;;;;;;;;;;6264964;28;90588;-64
2021/12/29 10:52:43;;;;;;;24.10;17.73;;;;;;;;;;6285956;28;20691;-64
2021/12/29 10:55:45;;;;;;;24.38;18.02;;;;;;;;;;6259399;28;20475;-64
2021/12/29 10:58:46;;;;;;;23.42;18.27;;;;;;;;;;6240404;28;20152;-64
2021/12/29 11:01:49;;;;;;;24.80;18.52;;;;;;;;;;6254773;28;20131;-64
2021/12/29 11:04:56;;;;;;;27.30;18.58;;;;;;;;;;6232929;28;20077;-64
2021/12/29 11:08:07;;;;;;;23.80;17.65;;;;;;;;;;6239280;28;20422;-64
2021/12/29 11:11:08;;;;;;;22.95;17.77;;;;;;;;;;6239065;28;20192;-64
2021/12/29 11:14:14;;;;;;;25.33;17.88;;;;;;;;;;6247956;28;20128;-64
2021/12/29 11:17:22;;;;;;;23.25;18.45;;;;;;;;;;6240595;28;20049;-64
2021/12/29 11:20:25;;;;;;;25.50;18.95;;;;;;;;;;6238133;28;20576;-64
2021/12/29 11:23:30;;;;;;;26.77;19.92;;;;;;;;;;6233848;28;20119;-64
2021/12/29 11:26:33;;;;;;;28.02;20.90;;;;;;;;;;6237537;28;20457;-64
2021/12/29 11:29:35;;;;;;;33.38;20.48;;;;;;;;;;6237113;28;20219;-64
2021/12/29 11:32:38;;;;;;;30.23;20.02;;;;;;;;;;6237011;28;20127;-64
2021/12/29 11:35:41;;;;;;;33.83;22.50;;;;;;;;;;6234726;28;20081;-64
2021/12/29 11:38:44;;;;;;;31.60;22.75;;;;;;;;;;6237054;28;20547;-64
2021/12/29 11:41:46;;;;;;;30.58;21.67;;;;;;;;;;6238502;28;20542;-65
2021/12/29 11:44:47;;;;;;;33.30;23.30;;;;;;;;;;6237837;28;20522;-64
2021/12/29 11:47:51;;;;;;;31.25;22.15;;;;;;;;;;6234638;28;20620;-64
2021/12/29 11:50:55;;;;;;;34.08;22.40;;;;;;;;;;6236830;28;20137;-64
2021/12/29 11:54:03;;;;;;;33.10;21.50;;;;;;;;;;6234651;28;20124;-64
2021/12/29 11:57:12;;;;;;;31.73;23.05;;;;;;;;;;6236045;28;20061;-64
2021/12/29 12:00:17;;;;;;;32.25;22.98;;;;;;;;;;6235870;28;20048;-64
2021/12/29 12:03:19;;;;;;;34.05;23.17;;;;;;;;;;6240461;28;20064;-64
2021/12/29 12:06:23;;;;;;;29.90;21.83;;;;;;;;;;6245895;28;20057;-64
2021/12/29 12:09:26;;;;;;;33.58;23.77;;;;;;;;;;6242536;28;20068;-64
2021/12/29 12:12:34;;;;;;;35.13;23.50;;;;;;;;;;6245962;28;20425;-65
2021/12/29 12:15:37;;;;;;;35.75;23.63;;;;;;;;;;6244965;28;20037;-64
2021/12/29 12:18:46;;;;;;;31.05;22.42;;;;;;;;;;6246198;28;20137;-64
2021/12/29 12:21:48;;;;;;;30.13;21.27;;;;;;;;;;6245291;28;20087;-64
2021/12/29 12:24:59;;;;;;;31.98;22.35;;;;;;;;;;6246038;28;20081;-64
2021/12/29 12:28:02;;;;;;;30.67;21.83;;;;;;;;;;6244551;28;20057;-64
2021/12/29 12:31:04;;;;;;;30.85;21.80;;;;;;;;;;6244160;28;20084;-64
2021/12/29 12:34:11;;;;;;;30.88;22.90;;;;;;;;;;6236619;28;20128;-63
2021/12/29 12:37:15;;;;;;;30.17;22.13;;;;;;;;;;6244382;28;20498;-64
2021/12/29 12:40:23;;;;;;;;;;;;;;;;;;6242373;28;20058;-63
2021/12/29 12:43:24;;;;;;;33.72;23.48;;;;;;;;;;6237656;28;20026;-64
2021/12/29 12:46:30;;;;;;;32.92;23.13;;;;;;;;;;6243170;28;20077;-63
2021/12/29 12:49:42;;;;;;;36.47;24.65;;;;;;;;;;6237204;28;20135;-64
2021/12/29 12:52:44;;;;;;;36.03;24.90;;;;;;;;;;6236060;28;20092;-64
2021/12/29 12:55:50;;;;;;;36.67;25.77;;;;;;;;;;6243918;28;20088;-64
2021/12/29 12:58:56;;;;;;;37.55;25.55;;;;;;;;;;6243296;28;20049;-64
2021/12/29 13:01:57;;;;;;;37.97;26.67;;;;;;;;;;6244129;28;20535;-64
2021/12/29 13:05:04;;;;;;;36.78;25.70;;;;;;;;;;6244336;28;20569;-64
2021/12/29 13:08:09;;;;;;;38.92;25.67;;;;;;;;;;6242699;28;20046;-63
2021/12/29 13:11:14;;;;;;;40.47;26.40;;;;;;;;;;6243828;28;20110;-64
2021/12/29 13:14:15;;;;;;;37.15;26.23;;;;;;;;;;6243388;28;20041;-64
2021/12/29 13:17:17;;;;;;;41.30;26.15;;;;;;;;;;6244421;28;20045;-63
2021/12/29 13:20:19;;;;;;;39.40;25.90;;;;;;;;;;6243131;28;20139;-64
2021/12/29 13:23:20;;;;;;;38.40;25.88;;;;;;;;;;6219427;28;20050;-64
2021/12/29 13:26:23;;;;;;;38.80;26.95;;;;;;;;;;6242958;28;20537;-64
2021/12/29 13:29:26;;;;;;;41.22;27.70;;;;;;;;;;6241571;28;20107;-64
2021/12/29 13:32:28;;;;;;;40.85;26.10;;;;;;;;;;6243347;28;20049;-64
2021/12/29 13:35:31;;;;;;;38.47;26.85;;;;;;;;;;6241319;28;20169;-64
2021/12/29 13:38:33;;;;;;;39.87;26.83;;;;;;;;;;6242451;28;20107;-63
2021/12/29 13:41:37;;;;;;;39.38;27.17;;;;;;;;;;6238548;28;20088;-64
2021/12/29 13:44:39;;;;;;;41.45;27.17;;;;;;;;;;6242629;28;20096;-64
2021/12/29 13:47:40;;;;;;;40.63;27.00;;;;;;;;;;6241987;28;20167;-64
2021/12/29 13:50:43;;;;;;;40.28;26.50;;;;;;;;;;6242544;28;20080;-64
2021/12/29 13:53:48;;;;;;;41.47;27.48;;;;;;;;;;6239667;28;20081;-64
2021/12/29 13:56:55;;;;;;;42.40;27.27;;;;;;;;;;6241876;28;20163;-65
2021/12/29 13:59:58;;;;;;;38.20;26.25;;;;;;;;;;6240610;28;20099;-64
2021/12/29 14:03:00;;;;;;;40.93;27.40;;;;;;;;;;6243409;28;20128;-64
2021/12/29 14:06:03;;;;;;;38.63;26.75;;;;;;;;;;6241227;28;20184;-64
2021/12/29 14:09:05;;;;;;;43.47;28.48;;;;;;;;;;6243852;28;20159;-64
2021/12/29 14:12:12;;;;;;;41.35;27.77;;;;;;;;;;6240372;28;20669;-64
2021/12/29 14:15:17;;;;;;;39.60;26.83;;;;;;;;;;6240710;28;20184;-64
2021/12/29 14:18:22;;;;;;;42.20;27.88;;;;;;;;;;6240806;28;20045;-64
2021/12/29 14:21:26;;;;;;;39.67;27.30;;;;;;;;;;6239419;28;20057;-64
2021/12/29 14:24:28;;;;;;;40.53;28.50;;;;;;;;;;6241036;28;20084;-64
2021/12/29 14:27:33;;;;;;;41.00;27.85;;;;;;;;;;6241834;28;20069;-64
2021/12/29 14:30:35;;;;;;;37.70;26.73;;;;;;;;;;6239688;28;20049;-64
2021/12/29 14:33:39;;;;;;;39.47;27.80;;;;;;;;;;6238609;28;20049;-66
2021/12/29 14:36:44;;;;;;;;;;;;;;;;;;6238484;28;20534;-64
2021/12/29 14:39:46;;;;;;;43.03;28.25;;;;;;;;;;6239742;28;19941;-64
2021/12/29 14:42:49;;;;;;;39.92;28.00;;;;;;;;;;6240305;28;20184;-65
2021/12/29 14:45:53;;;;;;;43.30;29.50;;;;;;;;;;6239781;28;20041;-64
2021/12/29 14:48:56;;;;;;;45.08;29.30;;;;;;;;;;6242713;28;20155;-64
2021/12/29 14:51:58;;;;;;;41.83;27.90;;;;;;;;;;6239064;28;20060;-64
2021/12/29 14:55:00;;;;;;;45.28;28.95;;;;;;;;;;6239592;28;20467;-64
2021/12/29 14:58:03;;;;;;;44.58;28.90;;;;;;;;;;6240366;28;20529;-64
2021/12/29 15:01:08;;;;;;;43.53;28.90;;;;;;;;;;6242066;28;20077;-64
2021/12/29 15:04:09;;;;;;;45.22;28.65;;;;;;;;;;6240898;28;20140;-64
2021/12/29 15:07:19;;;;;;;46.13;29.90;;;;;;;;;;6239794;28;20452;-64
2021/12/29 15:10:29;;;;;;;43.95;28.30;;;;;;;;;;6240888;28;20050;-64
2021/12/29 15:13:37;;;;;;;45.10;29.35;;;;;;;;;;6240856;28;20093;-64
2021/12/29 15:16:38;;;;;;;46.40;28.60;;;;;;;;;;6242269;28;20053;-64
2021/12/29 15:19:40;;;;;;;46.65;28.77;;;;;;;;;;6241455;28;20188;-64
2021/12/29 15:22:42;;;;;;;50.10;29.15;;;;;;;;;;6242203;28;20136;-64
2021/12/29 15:25:44;;;;;;;47.67;30.50;;;;;;;;;;6239955;28;20184;-64
2021/12/29 15:28:48;;;;;;;47.88;30.33;;;;;;;;;;6238705;28;20528;-64
2021/12/29 15:31:49;;;;;;;48.75;30.98;;;;;;;;;;6241095;28;20055;-64
2021/12/29 15:34:52;;;;;;;48.78;30.27;;;;;;;;;;6237028;28;20096;-64
2021/12/29 15:37:54;;;;;;;45.90;29.83;;;;;;;;;;6243622;28;20056;-64
2021/12/29 15:40:59;;;;;;;49.50;30.83;;;;;;;;;;6244262;28;20066;-64
2021/12/29 15:44:02;;;;;;;48.33;30.80;;;;;;;;;;6243723;28;20060;-64
2021/12/29 15:47:04;;;;;;;47.70;29.15;;;;;;;;;;6246453;28;20049;-64
2021/12/29 15:50:07;;;;;;;48.67;29.63;;;;;;;;;;6244125;28;20127;-65
2021/12/29 15:53:09;;;;;;;51.88;31.58;;;;;;;;;;6244501;28;20049;-64
2021/12/29 15:56:11;;;;;;;47.72;29.90;;;;;;;;;;6243795;28;20073;-64
2021/12/29 15:59:14;;;;;;;48.85;30.63;;;;;;;;;;6244203;28;20409;-65
2021/12/29 16:02:16;;;;;;;47.28;30.73;;;;;;;;;;6243709;28;20131;-64
2021/12/29 16:05:19;;;;;;;52.80;31.42;;;;;;;;;;6245819;28;20076;-65
2021/12/29 16:08:20;;;;;;;49.67;31.00;;;;;;;;;;6245422;28;20098;-64
2021/12/29 16:11:22;;;;;;;53.85;31.77;;;;;;;;;;6245266;28;20133;-64
2021/12/29 16:14:25;;;;;;;53.50;31.75;;;;;;;;;;6244033;28;20133;-64
2021/12/29 16:17:28;;;;;;;51.65;31.05;;;;;;;;;;6245113;28;20080;-65
2021/12/29 16:20:31;;;;;;;51.05;30.05;;;;;;;;;;6243837;28;20041;-64
2021/12/29 16:23:32;;;;;;;52.50;32.03;;;;;;;;;;6245113;28;20144;-64
2021/12/29 16:26:34;;;;;;;56.17;32.10;;;;;;;;;;6245562;28;20187;-64
2021/12/29 16:29:37;;;;;;;56.17;31.35;;;;;;;;;;6244358;28;20084;-64
2021/12/29 16:32:39;;;;;;;54.45;31.25;;;;;;;;;;6243447;28;20049;-64
2021/12/29 16:35:41;;;;;;;56.30;32.42;;;;;;;;;;6241922;28;20081;-64
2021/12/29 16:38:43;;;;;;;53.83;32.88;;;;;;;;;;6242780;28;20133;-64
2021/12/29 16:41:45;;;;;;;55.25;32.72;;;;;;;;;;6236433;28;20049;-64
2021/12/29 16:44:48;;;;;;;53.65;32.15;;;;;;;;;;6244340;28;20104;-64
2021/12/29 16:47:51;;;;;;;58.95;33.33;;;;;;;;;;6240972;28;20045;-64
2021/12/29 16:50:53;;;;;;;55.60;31.60;;;;;;;;;;6243588;28;20053;-64
2021/12/29 16:53:56;;;;;;;59.38;31.73;;;;;;;;;;6242115;28;20132;-64
2021/12/29 16:56:58;;;;;;;55.22;32.45;;;;;;;;;;6244122;28;20056;-64
2021/12/29 17:00:01;;;;;;;55.20;31.77;;;;;;;;;;6239366;28;20462;-64
2021/12/29 17:03:03;;;;;;;54.53;32.67;;;;;;;;;;6244972;28;20056;-64
2021/12/29 17:06:05;;;;;;;52.92;31.02;;;;;;;;;;6241226;28;20160;-64
2021/12/29 17:09:07;;;;;;;57.15;32.05;;;;;;;;;;6245027;28;20462;-64
2021/12/29 17:12:09;;;;;;;51.47;32.20;;;;;;;;;;6244145;28;20118;-64
2021/12/29 17:15:14;;;;;;;52.72;30.30;;;;;;;;;;6244051;28;20148;-64
2021/12/29 17:18:19;;;;;;;53.58;30.92;;;;;;;;;;6242939;28;20077;-65
2021/12/29 17:21:21;;;;;;;51.78;31.83;;;;;;;;;;6244680;28;20072;-64
2021/12/29 17:24:29;;;;;;;55.40;31.65;;;;;;;;;;6240440;28;20056;-64
2021/12/29 17:27:31;;;;;;;52.50;31.17;;;;;;;;;;6243499;28;20405;-67
2021/12/29 17:30:34;;;;;;;52.28;30.10;;;;;;;;;;6242947;28;20638;-64
2021/12/29 17:33:35;;;;;;;55.83;31.60;;;;;;;;;;6243779;28;20136;-65
2021/12/29 17:36:37;;;;;;;53.03;31.95;;;;;;;;;;6244966;28;20075;-64
2021/12/29 17:39:39;;;;;;;61.83;32.72;;;;;;;;;;6243906;28;20454;-64
2021/12/29 17:42:41;;;;;;;58.92;32.00;;;;;;;;;;6243648;28;20128;-64
2021/12/29 17:45:45;;;;;;;53.80;30.27;;;;;;;;;;6242830;28;20180;-64
2021/12/29 17:48:47;;;;;;;60.83;32.60;;;;;;;;;;6243214;28;20481;-64